^^
Station Historical Data
Daily Summary for December 4, 2017 Units:  English    Metric   Both
« Previous Day
Next Day »
Daily Weekly Monthly Yearly Custom
  High: Low: Average:
Temperature: 47.5 °F 25.9 °F 34.8 °F
Dew Point: 40.2 °F 24.2 °F 31.5 °F
Humidity: 96 % 64 % 89 %
Wind Speed: 2.8 mph 0.0 mph 0 mph
Wind Gust: 5.8 mph - -
Wind:- - South
Pressure: 30.48 in 30.32 in -
Precipitation: 0.00 in    
Historical Graphs
 
 
Tabular Data for December 4, 2017
Time Temperature Dew Point Pressure Wind Wind Speed Wind Gust Humidity Rainfall Rate (Hourly) solar Conditions
00:02 28.8 °F 27.0 °F 30.32 in Calm     93 % 0.00 in 0.0 W/m2 BKN
00:07 28.6 °F 26.8 °F 30.32 in Calm     93 % 0.00 in 0.0 W/m2 BKN
00:12 28.6 °F 26.8 °F 30.32 in Calm     93 % 0.00 in 0.0 W/m2 BKN
00:17 28.4 °F 26.6 °F 30.32 in Calm     93 % 0.00 in 0.0 W/m2 BKN
00:22 28.1 °F 26.3 °F 30.32 in Calm     93 % 0.00 in 0.0 W/m2 BKN
00:27 28.2 °F 26.4 °F 30.32 in Calm     93 % 0.00 in 0.0 W/m2 BKN
00:32 28.2 °F 26.4 °F 30.32 in Calm     93 % 0.00 in 0.0 W/m2 BKN
00:37 28.1 °F 26.3 °F 30.32 in Calm     93 % 0.00 in 0.0 W/m2 OVC
00:43 27.8 °F 26.0 °F 30.32 in Calm     93 % 0.00 in 0.0 W/m2 OVC
00:48 27.9 °F 26.1 °F 30.32 in Calm     93 % 0.00 in 0.0 W/m2 OVC
00:53 27.9 °F 26.1 °F 30.32 in Calm     93 % 0.00 in 0.0 W/m2 OVC
00:58 27.9 °F 26.1 °F 30.33 in Calm     93 % 0.00 in 0.0 W/m2 OVC
01:03 27.9 °F 26.1 °F 30.33 in Calm     93 % 0.00 in 0.0 W/m2 OVC
01:08 28.0 °F 26.2 °F 30.33 in Calm     93 % 0.00 in 0.0 W/m2 OVC
01:13 28.0 °F 26.2 °F 30.33 in Calm     93 % 0.00 in 0.0 W/m2 OVC
01:18 27.8 °F 26.0 °F 30.33 in Calm     93 % 0.00 in 0.0 W/m2 OVC
01:23 27.7 °F 25.9 °F 30.33 in Calm     93 % 0.00 in 0.0 W/m2 OVC
01:28 27.7 °F 25.9 °F 30.33 in Calm     93 % 0.00 in 0.0 W/m2 OVC
01:33 27.4 °F 25.6 °F 30.33 in Calm     93 % 0.00 in 0.0 W/m2 OVC
01:38 27.3 °F 25.5 °F 30.33 in Calm     93 % 0.00 in 0.0 W/m2 OVC
01:43 27.3 °F 25.5 °F 30.34 in Calm     93 % 0.00 in 0.0 W/m2 OVC
01:48 27.3 °F 25.5 °F 30.34 in Calm     93 % 0.00 in 0.0 W/m2 OVC
01:53 27.0 °F 25.2 °F 30.34 in Calm     93 % 0.00 in 0.0 W/m2 OVC
01:58 26.8 °F 24.8 °F 30.34 in Calm     92 % 0.00 in 0.0 W/m2 OVC
02:03 26.7 °F 24.9 °F 30.34 in Calm     93 % 0.00 in 0.0 W/m2 OVC
02:08 26.7 °F 24.9 °F 30.34 in Calm     93 % 0.00 in 0.0 W/m2 OVC
02:13 26.7 °F 24.9 °F 30.34 in Calm     93 % 0.00 in 0.0 W/m2 OVC
02:18 26.8 °F 25.0 °F 30.34 in Calm     93 % 0.00 in 0.0 W/m2 OVC
02:23 26.7 °F 24.9 °F 30.34 in Calm     93 % 0.00 in 0.0 W/m2 OVC
02:28 26.6 °F 24.8 °F 30.34 in Calm     93 % 0.00 in 0.0 W/m2 OVC
02:33 26.7 °F 24.9 °F 30.35 in Calm     93 % 0.00 in 0.0 W/m2 OVC
02:38 26.7 °F 24.9 °F 30.35 in Calm     93 % 0.00 in 0.0 W/m2 OVC
02:43 26.6 °F 24.8 °F 30.35 in Calm     93 % 0.00 in 0.0 W/m2 OVC
02:48 26.4 °F 24.7 °F 30.35 in Calm     93 % 0.00 in 0.0 W/m2 OVC
02:53 26.3 °F 24.6 °F 30.35 in Calm     93 % 0.00 in 0.0 W/m2 OVC
02:58 26.2 °F 24.5 °F 30.35 in Calm     93 % 0.00 in 0.0 W/m2 OVC
03:03 26.3 °F 24.6 °F 30.35 in Calm     93 % 0.00 in 0.0 W/m2 OVC
03:08 26.3 °F 24.6 °F 30.35 in Calm     93 % 0.00 in 0.0 W/m2 OVC
03:13 26.2 °F 24.5 °F 30.36 in Calm     93 % 0.00 in 0.0 W/m2 OVC
03:18 26.4 °F 24.7 °F 30.35 in Calm     93 % 0.00 in 0.0 W/m2 OVC
03:23 26.4 °F 24.7 °F 30.35 in Calm     93 % 0.00 in 0.0 W/m2 OVC
03:28 26.5 °F 24.8 °F 30.36 in Calm     93 % 0.00 in 0.0 W/m2 OVC
03:33 26.5 °F 24.8 °F 30.35 in Calm     93 % 0.00 in 0.0 W/m2 OVC
03:38 26.5 °F 24.8 °F 30.36 in Calm     93 % 0.00 in 0.0 W/m2 OVC
03:43 26.3 °F 24.6 °F 30.36 in Calm     93 % 0.00 in 0.0 W/m2 OVC
03:48 26.1 °F 24.4 °F 30.36 in Calm     93 % 0.00 in 0.0 W/m2 OVC
03:53 26.1 °F 24.4 °F 30.36 in Calm     93 % 0.00 in 0.0 W/m2 OVC
03:58 25.9 °F 24.2 °F 30.36 in Calm     93 % 0.00 in 0.0 W/m2 OVC
04:03 25.9 °F 24.2 °F 30.36 in Calm     93 % 0.00 in 0.0 W/m2 OVC
04:08 26.0 °F 24.3 °F 30.36 in Calm     93 % 0.00 in 0.0 W/m2 OVC
04:13 26.1 °F 24.4 °F 30.36 in Calm     93 % 0.00 in 0.0 W/m2 OVC
04:18 26.0 °F 24.3 °F 30.36 in Calm     93 % 0.00 in 0.0 W/m2 OVC
04:23 26.0 °F 24.3 °F 30.37 in Calm     93 % 0.00 in 0.0 W/m2 OVC
04:28 26.2 °F 24.7 °F 30.37 in Calm     94 % 0.00 in 0.0 W/m2 OVC
04:33 26.5 °F 25.0 °F 30.37 in Calm     94 % 0.00 in 0.0 W/m2 OVC
04:38 26.7 °F 25.2 °F 30.37 in Calm     94 % 0.00 in 0.0 W/m2 OVC
04:43 26.9 °F 25.4 °F 30.37 in Calm     94 % 0.00 in 0.0 W/m2 OVC
04:48 27.1 °F 25.6 °F 30.36 in Calm     94 % 0.00 in 0.0 W/m2 OVC
04:53 27.1 °F 25.6 °F 30.36 in Calm     94 % 0.00 in 0.0 W/m2 OVC
05:03 27.2 °F 25.7 °F 30.37 in Calm     94 % 0.00 in 0.0 W/m2 OVC
05:08 27.2 °F 25.7 °F 30.37 in Calm     94 % 0.00 in 0.0 W/m2 OVC
05:13 27.3 °F 25.8 °F 30.37 in Calm     94 % 0.00 in 0.0 W/m2 OVC
05:18 27.5 °F 26.0 °F 30.38 in Calm     94 % 0.00 in 0.0 W/m2 OVC
05:23 27.4 °F 25.9 °F 30.38 in Calm     94 % 0.00 in 0.0 W/m2 OVC
05:28 27.3 °F 25.8 °F 30.37 in Calm     94 % 0.00 in 0.0 W/m2 OVC
05:33 27.3 °F 25.8 °F 30.38 in Calm     94 % 0.00 in 0.0 W/m2 OVC
05:38 27.3 °F 25.8 °F 30.38 in Calm     94 % 0.00 in 0.0 W/m2 OVC
05:43 27.2 °F 25.7 °F 30.38 in Calm     94 % 0.00 in 0.0 W/m2 OVC
05:48 27.2 °F 25.7 °F 30.39 in Calm     94 % 0.00 in 0.0 W/m2 OVC
05:53 27.2 °F 25.7 °F 30.39 in Calm     94 % 0.00 in 0.0 W/m2 OVC
05:58 27.1 °F 25.6 °F 30.39 in Calm     94 % 0.00 in 0.0 W/m2 OVC
06:03 27.2 °F 25.7 °F 30.39 in Calm     94 % 0.00 in 0.0 W/m2 OVC
06:09 27.1 °F 25.6 °F 30.39 in Calm     94 % 0.00 in 0.0 W/m2 OVC
06:14 27.0 °F 25.5 °F 30.39 in Calm     94 % 0.00 in 0.0 W/m2 OVC
06:24 26.4 °F 24.9 °F 30.40 in Calm     94 % 0.00 in 0.0 W/m2 OVC
06:29 26.3 °F 24.8 °F 30.40 in Calm     94 % 0.00 in 0.0 W/m2 OVC
06:34 26.1 °F 24.6 °F 30.40 in Calm     94 % 0.00 in 0.0 W/m2 OVC
06:39 26.1 °F 24.6 °F 30.40 in Calm     94 % 0.00 in 0.0 W/m2 OVC
06:44 26.1 °F 24.6 °F 30.41 in Calm     94 % 0.00 in 0.0 W/m2 OVC
06:49 26.0 °F 24.5 °F 30.41 in Calm     94 % 0.00 in 0.0 W/m2 OVC
06:54 25.9 °F 24.4 °F 30.41 in Calm     94 % 0.00 in 0.0 W/m2 OVC
06:59 25.9 °F 24.4 °F 30.42 in Calm     94 % 0.00 in 0.0 W/m2 OVC
07:04 26.0 °F 24.5 °F 30.42 in Calm     94 % 0.00 in 0.0 W/m2 CLR
07:09 26.1 °F 24.6 °F 30.42 in Calm     94 % 0.00 in 0.0 W/m2 CLR
07:14 26.3 °F 25.1 °F 30.42 in Calm     95 % 0.00 in 0.0 W/m2 CLR
07:19 26.2 °F 24.7 °F 30.42 in Calm     94 % 0.00 in 5.0 W/m2 CLR
07:24 26.2 °F 24.7 °F 30.42 in Calm     94 % 0.00 in 7.0 W/m2 CLR
07:29 26.3 °F 25.1 °F 30.42 in Calm     95 % 0.00 in 9.0 W/m2 CLR
07:34 26.3 °F 25.1 °F 30.42 in Calm     95 % 0.00 in 11.0 W/m2 CLR
07:39 26.3 °F 24.8 °F 30.43 in Calm     94 % 0.00 in 14.0 W/m2 CLR
07:44 26.3 °F 25.1 °F 30.43 in Calm     95 % 0.00 in 19.0 W/m2 FEW
07:49 26.1 °F 24.6 °F 30.43 in Calm     94 % 0.00 in 33.0 W/m2 CLR
07:55 26.3 °F 25.1 °F 30.44 in Calm     95 % 0.00 in 40.0 W/m2 CLR
08:00 26.4 °F 24.9 °F 30.44 in Calm     94 % 0.00 in 47.0 W/m2 CLR
08:05 26.4 °F 24.9 °F 30.44 in Calm     94 % 0.00 in 26.0 W/m2 SCT
08:10 26.4 °F 24.9 °F 30.44 in Calm     94 % 0.00 in 39.0 W/m2 SCT
08:15 26.3 °F 25.1 °F 30.44 in Calm     95 % 0.00 in 44.0 W/m2 SCT
08:20 26.5 °F 25.3 °F 30.45 in Calm     95 % 0.00 in 54.0 W/m2 SCT
08:25 26.5 °F 25.0 °F 30.45 in Calm     94 % 0.00 in 63.0 W/m2 SCT
08:30 26.4 °F 24.9 °F 30.45 in Calm     94 % 0.00 in 72.0 W/m2 FEW
08:35 26.6 °F 25.4 °F 30.45 in Calm     95 % 0.00 in 72.0 W/m2 FEW
08:40 26.5 °F 25.3 °F 30.45 in Calm     95 % 0.00 in 70.0 W/m2 SCT
08:45 26.6 °F 25.4 °F 30.46 in Calm     95 % 0.00 in 74.0 W/m2 SCT
08:50 26.7 °F 25.5 °F 30.46 in Calm     95 % 0.00 in 81.0 W/m2 OVC
08:55 27.0 °F 25.8 °F 30.46 in Calm     95 % 0.00 in 83.0 W/m2 OVC
09:00 27.2 °F 26.0 °F 30.46 in Calm     95 % 0.00 in 81.0 W/m2 OVC
09:05 27.1 °F 25.9 °F 30.47 in Calm     95 % 0.00 in 98.0 W/m2 SCT
09:10 27.4 °F 26.2 °F 30.47 in Calm     95 % 0.00 in 95.0 W/m2 SCT
09:13 27.5 °F 26.3 °F 30.46 in Calm     95 % 0.00 in 98.0 W/m2 SCT
09:18 27.7 °F 26.5 °F 30.46 in Calm     95 % 0.00 in 105.0 W/m2 SCT
09:23 28.0 °F 26.8 °F 30.46 in Calm     95 % 0.00 in 113.0 W/m2 SCT
09:28 28.0 °F 26.8 °F 30.46 in Calm     95 % 0.00 in 123.0 W/m2 SCT
09:33 28.1 °F 26.9 °F 30.46 in Calm     95 % 0.00 in 127.0 W/m2 SCT
09:38 28.4 °F 27.2 °F 30.47 in Calm     95 % 0.00 in 114.0 W/m2 SCT
09:43 28.6 °F 27.4 °F 30.47 in Calm     95 % 0.00 in 139.0 W/m2 SCT
09:48 28.7 °F 27.4 °F 30.48 in Calm     95 % 0.00 in 137.0 W/m2 SCT
09:51 28.6 °F 27.4 °F 30.48 in Calm     95 % 0.00 in 156.0 W/m2 SCT
09:56 29.0 °F 27.7 °F 30.48 in Calm     95 % 0.00 in 146.0 W/m2 SCT
10:01 29.0 °F 27.7 °F 30.48 in Calm     95 % 0.00 in 178.0 W/m2 SCT
10:06 29.3 °F 28.0 °F 30.48 in Calm     95 % 0.00 in 172.0 W/m2 SCT
10:11 29.8 °F 28.5 °F 30.48 in Calm     95 % 0.00 in 220.0 W/m2 FEW
10:16 30.2 °F 28.9 °F 30.48 in Calm     95 % 0.00 in 251.0 W/m2 FEW
10:21 30.8 °F 29.5 °F 30.48 in Calm     95 % 0.00 in 199.0 W/m2 SCT
10:26 30.8 °F 29.5 °F 30.48 in Calm     95 % 0.00 in 162.0 W/m2 SCT
10:31 31.2 °F 29.9 °F 30.48 in Calm     95 % 0.00 in 181.0 W/m2 SCT
10:36 31.5 °F 30.5 °F 30.48 in Calm     96 % 0.00 in 178.0 W/m2 SCT
10:41 31.5 °F 30.2 °F 30.48 in Calm     95 % 0.00 in 193.0 W/m2 SCT
10:46 31.9 °F 30.6 °F 30.47 in Calm     95 % 0.00 in 195.0 W/m2 SCT
10:51 32.1 °F 31.1 °F 30.47 in Calm     96 % 0.00 in 216.0 W/m2 SCT
10:56 32.5 °F 31.2 °F 30.47 in Calm     95 % 0.00 in 239.0 W/m2 FEW
11:01 33.2 °F 32.2 °F 30.46 in Calm     96 % 0.00 in 218.0 W/m2 SCT
11:02 33.2 °F 32.2 °F 30.46 in Calm     96 % 0.00 in 213.0 W/m2 SCT
11:07 33.0 °F 31.7 °F 30.46 in Calm   3.5 mph 95 % 0.00 in 216.0 W/m2 SCT
11:12 33.3 °F 32.3 °F 30.46 in Calm   3.5 mph 96 % 0.00 in 230.0 W/m2 SCT
11:13 33.4 °F 32.4 °F 30.46 in Calm   3.5 mph 96 % 0.00 in 229.0 W/m2 SCT
11:18 33.8 °F 32.8 °F 30.46 in Calm   3.5 mph 96 % 0.00 in 294.0 W/m2 FEW
11:23 34.2 °F 33.2 °F 30.45 in Calm   2.3 mph 96 % 0.00 in 278.0 W/m2 OVC
11:28 34.5 °F 33.5 °F 30.45 in SSW 0.1 mph 2.3 mph 96 % 0.00 in 315.0 W/m2 OVC
11:31 35.1 °F 34.1 °F 30.45 in SSW 0.6 mph 2.3 mph 96 % 0.00 in 265.0 W/m2 OVC
11:36 35.0 °F 34.0 °F 30.45 in Calm   2.3 mph 96 % 0.00 in 290.0 W/m2 OVC
11:37 35.1 °F 34.1 °F 30.45 in Calm   2.3 mph 96 % 0.00 in 306.0 W/m2 OVC
11:42 35.3 °F 34.3 °F 30.45 in Calm   1.2 mph 96 % 0.00 in 278.0 W/m2 OVC
11:47 35.1 °F 34.1 °F 30.44 in SSW 0.1 mph 1.2 mph 96 % 0.00 in 236.0 W/m2 OVC
11:52 35.4 °F 34.1 °F 30.44 in Calm   1.2 mph 95 % 0.00 in 209.0 W/m2 BKN
11:57 35.9 °F 34.9 °F 30.44 in Calm   1.2 mph 96 % 0.00 in 206.0 W/m2 BKN
12:02 35.9 °F 34.6 °F 30.44 in Calm   1.2 mph 95 % 0.00 in 204.0 W/m2 SCT
12:07 36.2 °F 34.9 °F 30.44 in Calm   1.2 mph 95 % 0.00 in 204.0 W/m2 SCT
12:12 36.4 °F 35.1 °F 30.44 in Calm     95 % 0.00 in 209.0 W/m2 SCT
12:17 36.5 °F 35.2 °F 30.43 in Calm     95 % 0.00 in 197.0 W/m2 SCT
12:22 36.9 °F 35.6 °F 30.43 in SSW 0.1 mph 1.2 mph 95 % 0.00 in 218.0 W/m2 CLR
12:27 37.4 °F 36.1 °F 30.43 in Calm   3.5 mph 95 % 0.00 in 276.0 W/m2 CLR
12:32 37.7 °F 36.4 °F 30.43 in Calm   3.5 mph 95 % 0.00 in 338.0 W/m2 CLR
12:37 38.3 °F 37.0 °F 30.43 in Calm   1.2 mph 95 % 0.00 in 313.0 W/m2 CLR
12:42 38.9 °F 37.6 °F 30.42 in Calm   1.2 mph 95 % 0.00 in 352.0 W/m2 CLR
12:47 39.2 °F 37.6 °F 30.42 in Calm     94 % 0.00 in 299.0 W/m2 CLR
12:52 39.8 °F 37.9 °F 30.42 in Calm     93 % 0.00 in 334.0 W/m2 CLR
12:57 40.8 °F 38.9 °F 30.42 in Calm     93 % 0.00 in 320.0 W/m2 CLR
13:02 40.7 °F 38.3 °F 30.42 in Calm   1.2 mph 91 % 0.00 in 301.0 W/m2 CLR
13:07 41.4 °F 39.0 °F 30.42 in Calm   1.2 mph 91 % 0.00 in 315.0 W/m2 CLR
13:12 41.7 °F 38.7 °F 30.41 in Calm     89 % 0.00 in 287.0 W/m2 CLR
13:17 42.1 °F 39.1 °F 30.41 in Calm     89 % 0.00 in 294.0 W/m2 CLR
13:22 42.5 °F 38.9 °F 30.41 in Calm     87 % 0.00 in 229.0 W/m2 CLR
13:27 42.9 °F 39.0 °F 30.40 in Calm     86 % 0.00 in 197.0 W/m2 CLR
13:32 43.1 °F 38.9 °F 30.40 in Calm     85 % 0.00 in 209.0 W/m2 CLR
13:37 43.4 °F 38.9 °F 30.40 in Calm     84 % 0.00 in 236.0 W/m2 CLR
13:42 43.9 °F 39.1 °F 30.40 in Calm   2.3 mph 83 % 0.00 in 221.0 W/m2 CLR
13:47 44.2 °F 39.1 °F 30.40 in Calm   2.3 mph 82 % 0.00 in 239.0 W/m2 CLR
13:52 44.6 °F 38.8 °F 30.40 in Calm   2.3 mph 80 % 0.00 in 209.0 W/m2 CLR
13:57 44.9 °F 38.8 °F 30.40 in Calm   2.3 mph 79 % 0.00 in 230.0 W/m2 CLR
14:02 45.5 °F 39.0 °F 30.40 in Calm   2.3 mph 78 % 0.00 in 211.0 W/m2 CLR
14:07 46.1 °F 39.0 °F 30.40 in Calm     76 % 0.00 in 179.0 W/m2 CLR
14:08 46.1 °F 38.6 °F 30.40 in Calm     75 % 0.00 in 186.0 W/m2 CLR
14:13 46.3 °F 38.5 °F 30.40 in Calm     74 % 0.00 in 165.0 W/m2 CLR
14:18 46.6 °F 38.4 °F 30.40 in Calm     73 % 0.00 in 163.0 W/m2 CLR
14:23 46.9 °F 38.3 °F 30.40 in Calm     72 % 0.00 in 195.0 W/m2 CLR
14:28 47.2 °F 38.6 °F 30.40 in Calm     72 % 0.00 in 172.0 W/m2 CLR
14:33 47.5 °F 38.2 °F 30.40 in Calm     70 % 0.00 in 141.0 W/m2 CLR
14:38 47.5 °F 37.8 °F 30.40 in Calm     69 % 0.00 in 132.0 W/m2 CLR
14:43 47.4 °F 37.4 °F 30.40 in South 0.1 mph   68 % 0.00 in 81.0 W/m2 CLR
14:48 47.3 °F 36.5 °F 30.39 in South 1.9 mph 4.6 mph 66 % 0.00 in 65.0 W/m2 CLR
14:53 47.2 °F 36.0 °F 30.40 in South 0.3 mph 5.8 mph 65 % 0.00 in 69.0 W/m2 CLR
14:59 47.1 °F 35.9 °F 30.40 in South 0.5 mph 5.8 mph 65 % 0.00 in 70.0 W/m2 CLR
15:04 47.1 °F 35.5 °F 30.40 in South 1.5 mph 4.6 mph 64 % 0.00 in 74.0 W/m2 CLR
15:09 47.0 °F 35.4 °F 30.40 in SSE 2.8 mph 4.6 mph 64 % 0.00 in 72.0 W/m2 CLR
15:14 46.9 °F 35.7 °F 30.40 in SSE 0.1 mph 4.6 mph 65 % 0.00 in 77.0 W/m2 CLR
15:19 47.0 °F 35.8 °F 30.40 in SSE 0.6 mph 4.6 mph 65 % 0.00 in 81.0 W/m2 CLR
15:24 47.0 °F 35.8 °F 30.40 in Calm   3.5 mph 65 % 0.00 in 79.0 W/m2 CLR
15:29 46.9 °F 35.7 °F 30.40 in Calm   3.5 mph 65 % 0.00 in 76.0 W/m2 CLR
15:34 46.9 °F 36.1 °F 30.40 in Calm   2.3 mph 66 % 0.00 in 72.0 W/m2 CLR
15:39 46.7 °F 35.9 °F 30.39 in Calm   2.3 mph 66 % 0.00 in 62.0 W/m2 CLR
15:44 46.6 °F 36.2 °F 30.39 in SSE 0.1 mph   67 % 0.00 in 47.0 W/m2 CLR
15:49 46.5 °F 36.1 °F 30.39 in SSE 0.2 mph 3.5 mph 67 % 0.00 in 37.0 W/m2 CLR
15:54 46.4 °F 36.4 °F 30.39 in Calm   3.5 mph 68 % 0.00 in 32.0 W/m2 CLR
15:59 46.2 °F 36.6 °F 30.38 in Calm   2.3 mph 69 % 0.00 in 25.0 W/m2 CLR
16:04 46.1 °F 36.9 °F 30.38 in Calm   2.3 mph 70 % 0.00 in 21.0 W/m2 CLR
16:09 45.9 °F 36.7 °F 30.38 in Calm     70 % 0.00 in 16.0 W/m2 CLR
16:14 45.8 °F 36.9 °F 30.38 in Calm     71 % 0.00 in 12.0 W/m2 CLR
16:24 45.2 °F 36.4 °F 30.38 in Calm     71 % 0.00 in 7.0 W/m2 CLR
16:29 44.7 °F 36.2 °F 30.38 in Calm     72 % 0.00 in 5.0 W/m2 CLR
16:34 44.4 °F 36.3 °F 30.38 in Calm     73 % 0.00 in 0.0 W/m2 CLR
16:39 43.8 °F 36.0 °F 30.38 in Calm     74 % 0.00 in 0.0 W/m2 CLR
16:44 43.1 °F 36.0 °F 30.38 in Calm     76 % 0.00 in 0.0 W/m2 CLR
16:49 42.6 °F 36.2 °F 30.38 in Calm     78 % 0.00 in 0.0 W/m2 CLR
16:54 42.3 °F 36.3 °F 30.38 in Calm     79 % 0.00 in 0.0 W/m2 CLR
16:59 42.2 °F 36.5 °F 30.39 in Calm     80 % 0.00 in 0.0 W/m2 CLR
17:04 42.3 °F 36.9 °F 30.39 in Calm     81 % 0.00 in 0.0 W/m2 CLR
17:09 42.0 °F 36.6 °F 30.39 in Calm     81 % 0.00 in 0.0 W/m2 CLR
17:14 41.7 °F 36.3 °F 30.39 in Calm     81 % 0.00 in 0.0 W/m2 CLR
17:19 41.2 °F 35.8 °F 30.39 in Calm     81 % 0.00 in 0.0 W/m2 CLR
17:24 41.0 °F 35.9 °F 30.39 in Calm     82 % 0.00 in 0.0 W/m2 CLR
17:29 40.7 °F 35.9 °F 30.39 in Calm     83 % 0.00 in 0.0 W/m2 CLR
17:34 40.5 °F 35.7 °F 30.39 in Calm     83 % 0.00 in 0.0 W/m2 CLR
17:39 40.4 °F 35.6 °F 30.39 in Calm     83 % 0.00 in 0.0 W/m2 CLR
17:44 40.5 °F 36.0 °F 30.38 in Calm     84 % 0.00 in 0.0 W/m2 CLR
17:49 40.6 °F 36.1 °F 30.38 in Calm     84 % 0.00 in 0.0 W/m2 CLR
17:59 40.3 °F 35.8 °F 30.39 in Calm     84 % 0.00 in 0.0 W/m2 CLR
18:04 40.0 °F 35.6 °F 30.39 in Calm     84 % 0.00 in 0.0 W/m2 CLR
18:09 39.8 °F 35.4 °F 30.39 in Calm     84 % 0.00 in 0.0 W/m2 CLR
18:14 39.4 °F 35.0 °F 30.38 in Calm     84 % 0.00 in 0.0 W/m2 CLR
18:19 39.4 °F 35.3 °F 30.39 in Calm     85 % 0.00 in 0.0 W/m2 CLR
18:24 39.5 °F 35.4 °F 30.39 in Calm     85 % 0.00 in 0.0 W/m2 CLR
18:29 39.7 °F 35.6 °F 30.39 in Calm     85 % 0.00 in 0.0 W/m2 CLR
18:35 39.9 °F 35.8 °F 30.40 in Calm     85 % 0.00 in 0.0 W/m2 CLR
18:40 39.8 °F 35.7 °F 30.40 in Calm     85 % 0.00 in 0.0 W/m2 CLR
18:45 39.6 °F 35.5 °F 30.39 in Calm     85 % 0.00 in 0.0 W/m2 CLR
18:50 39.3 °F 35.2 °F 30.39 in Calm     85 % 0.00 in 0.0 W/m2 CLR
18:55 39.2 °F 35.1 °F 30.39 in Calm     85 % 0.00 in 0.0 W/m2 CLR
19:00 39.1 °F 35.0 °F 30.39 in Calm     85 % 0.00 in 0.0 W/m2 CLR
19:05 38.8 °F 35.0 °F 30.39 in Calm     86 % 0.00 in 0.0 W/m2 OVC
19:10 38.7 °F 34.9 °F 30.39 in Calm     86 % 0.00 in 0.0 W/m2 OVC
19:15 39.0 °F 35.2 °F 30.39 in Calm     86 % 0.00 in 0.0 W/m2 OVC
19:20 38.7 °F 34.9 °F 30.40 in Calm     86 % 0.00 in 0.0 W/m2 OVC
19:25 38.7 °F 34.9 °F 30.40 in Calm     86 % 0.00 in 0.0 W/m2 OVC
19:30 38.6 °F 35.1 °F 30.40 in Calm     87 % 0.00 in 0.0 W/m2 OVC
19:35 38.8 °F 35.3 °F 30.40 in Calm     87 % 0.00 in 0.0 W/m2 OVC
19:40 38.5 °F 35.0 °F 30.40 in Calm     87 % 0.00 in 0.0 W/m2 OVC
19:45 38.4 °F 34.9 °F 30.40 in Calm     87 % 0.00 in 0.0 W/m2 OVC
19:50 38.6 °F 35.1 °F 30.40 in Calm     87 % 0.00 in 0.0 W/m2 OVC
19:55 38.3 °F 34.8 °F 30.40 in Calm     87 % 0.00 in 0.0 W/m2 OVC
20:00 38.2 °F 34.7 °F 30.40 in Calm     87 % 0.00 in 0.0 W/m2 OVC
20:05 38.3 °F 34.8 °F 30.40 in Calm     87 % 0.00 in 0.0 W/m2 BKN
20:10 38.2 °F 34.7 °F 30.40 in Calm     87 % 0.00 in 0.0 W/m2 BKN
20:15 37.9 °F 34.4 °F 30.40 in Calm     87 % 0.00 in 0.0 W/m2 BKN
20:20 37.8 °F 34.6 °F 30.40 in Calm     88 % 0.00 in 0.0 W/m2 BKN
20:25 38.0 °F 34.8 °F 30.40 in Calm     88 % 0.00 in 0.0 W/m2 BKN
20:30 38.1 °F 34.9 °F 30.40 in Calm     88 % 0.00 in 0.0 W/m2 BKN
20:35 38.2 °F 35.0 °F 30.39 in Calm     88 % 0.00 in 0.0 W/m2 BKN
20:40 38.6 °F 35.4 °F 30.39 in Calm     88 % 0.00 in 0.0 W/m2 BKN
20:45 38.9 °F 35.4 °F 30.39 in Calm     87 % 0.00 in 0.0 W/m2 BKN
20:50 38.5 °F 35.0 °F 30.39 in Calm     87 % 0.00 in 0.0 W/m2 BKN
20:55 38.4 °F 35.2 °F 30.39 in Calm     88 % 0.00 in 0.0 W/m2 BKN
21:00 38.7 °F 35.5 °F 30.39 in Calm     88 % 0.00 in 0.0 W/m2 BKN
21:05 38.5 °F 35.0 °F 30.39 in Calm     87 % 0.00 in 0.0 W/m2 SCT
21:10 38.5 °F 35.3 °F 30.39 in Calm     88 % 0.00 in 0.0 W/m2 SCT
21:15 38.3 °F 35.1 °F 30.39 in Calm     88 % 0.00 in 0.0 W/m2 SCT
21:20 38.6 °F 35.4 °F 30.39 in Calm     88 % 0.00 in 0.0 W/m2 SCT
21:25 38.7 °F 35.5 °F 30.39 in Calm     88 % 0.00 in 0.0 W/m2 SCT
21:30 38.8 °F 35.3 °F 30.39 in Calm     87 % 0.00 in 0.0 W/m2 SCT
21:35 38.8 °F 35.3 °F 30.39 in Calm     87 % 0.00 in 0.0 W/m2 SCT
21:40 38.8 °F 35.3 °F 30.39 in Calm     87 % 0.00 in 0.0 W/m2 SCT
21:45 38.8 °F 35.6 °F 30.39 in Calm     88 % 0.00 in 0.0 W/m2 SCT
21:50 39.0 °F 35.7 °F 30.39 in Calm     88 % 0.00 in 0.0 W/m2 SCT
21:55 39.1 °F 35.8 °F 30.39 in Calm     88 % 0.00 in 0.0 W/m2 SCT
22:00 39.1 °F 35.8 °F 30.38 in Calm     88 % 0.00 in 0.0 W/m2 SCT
22:05 39.3 °F 36.0 °F 30.38 in Calm     88 % 0.00 in 0.0 W/m2 OVC
22:10 39.6 °F 36.3 °F 30.38 in Calm     88 % 0.00 in 0.0 W/m2 OVC
22:15 40.2 °F 36.9 °F 30.38 in Calm     88 % 0.00 in 0.0 W/m2 OVC
22:21 40.5 °F 36.9 °F 30.38 in Calm     87 % 0.00 in 0.0 W/m2 OVC
22:24 40.5 °F 36.9 °F 30.37 in Calm     87 % 0.00 in 0.0 W/m2 OVC
22:29 40.4 °F 36.8 °F 30.37 in Calm     87 % 0.00 in 0.0 W/m2 OVC
22:34 41.2 °F 37.9 °F 30.37 in Calm     88 % 0.00 in 0.0 W/m2 OVC
22:39 41.6 °F 38.0 °F 30.37 in Calm     87 % 0.00 in 0.0 W/m2 OVC
22:44 41.8 °F 38.2 °F 30.37 in Calm     87 % 0.00 in 0.0 W/m2 OVC
22:49 41.9 °F 38.3 °F 30.37 in Calm     87 % 0.00 in 0.0 W/m2 OVC
22:52 42.2 °F 38.6 °F 30.38 in Calm     87 % 0.00 in 0.0 W/m2 OVC
22:57 42.0 °F 38.1 °F 30.37 in Calm     86 % 0.00 in 0.0 W/m2 OVC
23:02 42.1 °F 38.2 °F 30.37 in Calm     86 % 0.00 in 0.0 W/m2 BKN
23:07 41.8 °F 38.2 °F 30.37 in Calm     87 % 0.00 in 0.0 W/m2 BKN
23:12 42.0 °F 38.4 °F 30.37 in Calm     87 % 0.00 in 0.0 W/m2 BKN
23:17 42.0 °F 38.4 °F 30.37 in SSE 0.6 mph 3.5 mph 87 % 0.00 in 0.0 W/m2 BKN
23:22 42.5 °F 39.2 °F 30.37 in Calm   3.5 mph 88 % 0.00 in 0.0 W/m2 BKN
23:27 42.7 °F 39.1 °F 30.36 in Calm   3.5 mph 87 % 0.00 in 0.0 W/m2 BKN
23:32 42.6 °F 39.0 °F 30.36 in Calm     87 % 0.00 in 0.0 W/m2 BKN
23:37 42.9 °F 39.3 °F 30.36 in Calm     87 % 0.00 in 0.0 W/m2 OVC
23:42 42.9 °F 39.3 °F 30.36 in Calm     87 % 0.00 in 0.0 W/m2 OVC
23:47 43.2 °F 39.9 °F 30.35 in Calm     88 % 0.00 in 0.0 W/m2 OVC
23:52 43.3 °F 39.7 °F 30.35 in Calm     87 % 0.00 in 0.0 W/m2 OVC
23:57 43.5 °F 40.2 °F 30.35 in Calm   1.2 mph 88 % 0.00 in 0.0 W/m2 OVC
Air Products Campus Weather
Compliments of Weather Underground - 3.5 mb